CheckWX is a tool to help pilots better visualize weather data.  It is not intended as a substitute for an official pre-flight weather briefing.

01:12:02 UTC

KSAR METAR
Sparta Community-Hunter Field Airport
Sparta, Illinois, USA
Current

37 mins ago

KSAR 200035Z AUTO 20007KT 10SM CLR 31/26 A2991 RMK AO2 T03060257
Observed
Jul-20 @ 00:35 UTC
Wind
  • 200° at 7 KTS
Visibility
10 SM
Flight Rules
VFR
Cloud Levels
  • Clear skies
Temperature
31°C / 88°F
Dewpoint
26°C / 79°F
Heat Index
39°C / 103°F
Humidity
75%
Altimeter
29.91" Hg
Pressure
1012.92 hPa
Previous

57 mins ago

KSAR 200015Z AUTO 19008KT 10SM CLR 31/26 A2991 RMK AO2 T03100257
Observed
Jul-20 @ 00:15 UTC
Wind
  • 190° at 8 KTS
Visibility
10 SM
Flight Rules
VFR
Cloud Levels
  • Clear skies
Temperature
31°C / 88°F
Dewpoint
26°C / 79°F
Heat Index
39°C / 103°F
Humidity
75%
Altimeter
29.91" Hg
Pressure
1012.92 hPa
Previous

1 hour ago

KSAR 192355Z AUTO 18011G17KT 10SM CLR 32/26 A2992 RMK AO2 T03150256 10334 20315
Observed
Jul-19 @ 23:55 UTC
Wind
  • 180° at 11 KTS
  • Gusting to 17 KTS
Visibility
10 SM
Flight Rules
VFR
Cloud Levels
  • Clear skies
Temperature
32°C / 90°F
Dewpoint
26°C / 79°F
Heat Index
42°C / 107°F
Humidity
71%
Altimeter
29.92" Hg
Pressure
1013.22 hPa